Time;durP1;ratioP1;P1;durP2;ratioP2;P2;SDS_P1;SDS_P2;PMS_P1;PMS_P2;Temp;Humidity;BMP_temperature;BMP_pressure;BME280_temperature;BME280_humidity;BME280_pressure;Samples;Min_cycle;Max_cycle;Signal;HPM_P1;HPM_P2
2021/08/04 00:01:36;;;;;;;1.30;1.30;;;22.50;65.60;;;;;;5031125;28;20028;-42
2021/08/04 00:04:02;;;;;;;1.02;1.02;;;22.50;65.70;;;;;;5027077;28;20495;-42
2021/08/04 00:06:27;;;;;;;1.23;1.20;;;22.50;65.60;;;;;;5026930;28;20041;-42
2021/08/04 00:08:53;;;;;;;1.23;1.13;;;22.50;65.60;;;;;;5029008;28;20057;-42
2021/08/04 00:11:18;;;;;;;1.30;1.20;;;22.50;65.40;;;;;;5020347;28;20041;-43
2021/08/04 00:13:44;;;;;;;0.93;0.93;;;22.50;65.50;;;;;;5020711;28;20061;-43
2021/08/04 00:16:10;;;;;;;1.05;1.05;;;22.50;66.10;;;;;;5016803;28;20034;-36
2021/08/04 00:18:35;;;;;;;1.10;1.10;;;22.50;65.80;;;;;;5016744;28;20030;-42
2021/08/04 00:21:01;;;;;;;1.10;1.10;;;22.50;66.20;;;;;;5010360;28;20475;-34
2021/08/04 00:23:26;;;;;;;1.00;1.00;;;22.50;65.60;;;;;;5025919;28;20096;-38
2021/08/04 00:25:52;;;;;;;0.98;0.98;;;22.50;65.90;;;;;;5014799;28;20493;-42
2021/08/04 00:28:17;;;;;;;1.00;1.00;;;22.50;65.50;;;;;;5036768;28;20029;-36
2021/08/04 00:30:43;;;;;;;0.90;0.90;;;22.50;65.60;;;;;;5021545;28;20070;-37
2021/08/04 00:33:08;;;;;;;0.98;0.98;;;22.50;65.70;;;;;;5028169;28;20715;-33
2021/08/04 00:35:34;;;;;;;1.17;1.17;;;22.50;65.60;;;;;;5021670;28;20117;-44
2021/08/04 00:38:00;;;;;;;1.25;1.20;;;22.50;65.50;;;;;;5026506;28;20033;-38
2021/08/04 00:40:25;;;;;;;1.15;1.15;;;22.50;65.60;;;;;;5027363;28;20033;-44
2021/08/04 00:42:51;;;;;;;1.10;1.10;;;22.50;65.90;;;;;;5024336;28;20526;-41
2021/08/04 00:45:16;;;;;;;1.25;1.25;;;22.50;65.40;;;;;;5024955;28;20527;-44
2021/08/04 00:47:42;;;;;;;1.08;1.08;;;22.50;65.40;;;;;;5028749;28;20083;-41
2021/08/04 00:50:08;;;;;;;0.95;0.95;;;22.50;65.90;;;;;;5026197;28;20043;-38
2021/08/04 00:52:34;;;;;;;1.00;1.00;;;22.50;65.30;;;;;;5025768;28;20414;-46
2021/08/04 00:54:59;;;;;;;0.90;0.90;;;22.50;65.80;;;;;;5026018;28;20503;-34
2021/08/04 00:57:25;;;;;;;1.60;1.10;;;22.50;65.50;;;;;;5023319;28;20480;-38
2021/08/04 00:59:50;;;;;;;1.10;1.10;;;22.50;65.90;;;;;;5029060;28;20033;-41
2021/08/04 01:02:28;;;;;;;1.30;1.20;;;22.50;65.60;;;;;;5009504;28;20034;-42
2021/08/04 01:05:00;;;;;;;1.02;1.02;;;22.50;66.00;;;;;;5009534;28;20033;-50
2021/08/04 01:07:38;;;;;;;1.08;1.08;;;22.50;66.20;;;;;;5009645;28;20059;-42
2021/08/04 01:10:37;;;;;;;0.93;0.90;;;22.50;65.50;;;;;;4992601;28;20021;-38
2021/08/04 01:13:21;;;;;;;1.10;1.10;;;22.50;65.40;;;;;;5008803;28;20117;-47
2021/08/04 01:15:57;;;;;;;1.17;1.17;;;22.50;65.40;;;;;;4997587;28;20030;-46
2021/08/04 01:18:25;;;;;;;1.20;1.20;;;22.40;66.20;;;;;;5022939;28;20107;-41
2021/08/04 01:20:51;;;;;;;1.35;1.25;;;22.50;65.60;;;;;;5026527;28;20049;-39
2021/08/04 01:23:18;;;;;;;1.05;1.05;;;22.50;65.50;;;;;;5031982;28;20071;-40
2021/08/04 01:26:29;;;;;;;1.75;1.00;;;22.50;65.40;;;;;;5015048;28;20162;-38
2021/08/04 01:28:56;;;;;;;1.02;1.02;;;22.50;65.50;;;;;;4999839;28;20101;-35
2021/08/04 01:31:24;;;;;;;1.08;1.08;;;22.40;65.60;;;;;;5008813;28;20039;-40
2021/08/04 01:33:50;;;;;;;0.95;0.95;;;22.50;65.30;;;;;;5006356;28;20034;-35
2021/08/04 01:36:15;;;;;;;1.10;1.10;;;22.50;65.80;;;;;;4991398;28;20648;-31
2021/08/04 01:38:41;;;;;;;0.90;0.90;;;22.50;65.90;;;;;;4993164;28;20055;-37
2021/08/04 01:41:07;;;;;;;0.88;0.88;;;22.50;65.70;;;;;;5026176;28;20036;-37
2021/08/04 01:43:33;;;;;;;0.98;0.98;;;22.40;65.90;;;;;;4992276;28;20589;-42
2021/08/04 01:45:59;;;;;;;1.00;1.00;;;22.40;65.70;;;;;;5008823;28;20025;-45
2021/08/04 01:48:24;;;;;;;1.25;1.15;;;22.40;65.60;;;;;;5004243;28;20450;-40
2021/08/04 01:50:54;;;;;;;1.05;1.05;;;22.50;65.70;;;;;;5028573;28;20128;-40
2021/08/04 01:53:23;;;;;;;1.88;1.40;;;22.40;65.50;;;;;;4992826;28;20264;-37
2021/08/04 01:55:49;;;;;;;0.90;0.90;;;22.40;65.40;;;;;;5007289;28;20059;-31
2021/08/04 01:58:14;;;;;;;1.10;1.08;;;22.50;65.70;;;;;;5018924;28;20484;-40
2021/08/04 02:00:40;;;;;;;0.90;0.90;;;22.50;65.50;;;;;;5028968;28;20041;-33
2021/08/04 02:03:06;;;;;;;1.63;1.20;;;22.50;65.50;;;;;;5026964;28;20049;-35
2021/08/04 02:05:31;;;;;;;0.90;0.90;;;22.40;65.20;;;;;;5035078;28;20045;-36
2021/08/04 02:08:01;;;;;;;1.23;1.17;;;22.40;65.50;;;;;;5024832;28;20523;-40
2021/08/04 02:10:36;;;;;;;1.23;1.13;;;22.40;65.70;;;;;;5025457;28;20045;-40
2021/08/04 02:13:18;;;;;;;1.10;1.10;;;22.50;65.60;;;;;;4992821;28;20422;-42
2021/08/04 02:15:44;;;;;;;1.10;1.10;;;22.50;65.50;;;;;;4993501;28;20109;-36
2021/08/04 02:18:10;;;;;;;0.95;0.95;;;22.50;65.60;;;;;;4995102;28;20652;-46
2021/08/04 02:20:38;;;;;;;1.08;1.08;;;22.50;65.50;;;;;;5012372;28;20033;-35
2021/08/04 02:23:15;;;;;;;0.93;0.93;;;22.50;66.10;;;;;;5031530;28;20140;-40
2021/08/04 02:25:50;;;;;;;1.17;1.17;;;22.50;65.90;;;;;;5035774;28;20061;-38
2021/08/04 02:28:21;;;;;;;1.10;1.10;;;22.40;65.80;;;;;;5002094;28;20100;-41
2021/08/04 02:30:47;;;;;;;1.05;1.05;;;22.40;66.00;;;;;;5013040;28;20141;-44
2021/08/04 02:33:13;;;;;;;1.40;1.20;;;22.40;65.70;;;;;;5010984;28;20025;-40
2021/08/04 02:35:38;;;;;;;1.17;1.10;;;22.40;66.10;;;;;;5010859;28;20811;-43
2021/08/04 02:38:04;;;;;;;0.88;0.88;;;22.40;66.00;;;;;;5009682;28;20040;-37
2021/08/04 02:40:29;;;;;;;1.17;1.10;;;22.40;66.20;;;;;;5020723;28;20060;-38
2021/08/04 02:42:56;;;;;;;1.10;1.10;;;22.40;66.00;;;;;;5028501;28;20034;-40
2021/08/04 02:45:21;;;;;;;1.10;1.10;;;22.40;66.20;;;;;;5022289;28;20477;-36
2021/08/04 02:47:47;;;;;;;1.33;1.33;;;22.40;66.00;;;;;;5008956;28;20025;-38
2021/08/04 02:50:12;;;;;;;1.90;1.60;;;22.40;66.10;;;;;;5009294;28;20533;-44
2021/08/04 02:52:38;;;;;;;1.20;1.20;;;22.40;66.10;;;;;;5004972;28;20041;-43
2021/08/04 02:55:04;;;;;;;1.38;1.27;;;22.40;66.20;;;;;;5011567;28;20095;-42
2021/08/04 02:57:29;;;;;;;1.42;1.33;;;22.40;66.00;;;;;;5024288;28;20199;-42
2021/08/04 02:59:55;;;;;;;1.45;1.38;;;22.40;65.90;;;;;;5030336;28;20036;-39
2021/08/04 03:02:20;;;;;;;1.42;1.33;;;22.30;66.30;;;;;;5028566;28;20029;-40
2021/08/04 03:04:46;;;;;;;1.70;1.30;;;22.30;66.10;;;;;;5028652;28;20415;-40
2021/08/04 03:07:11;;;;;;;1.20;1.20;;;22.30;66.30;;;;;;5011388;28;20033;-44
2021/08/04 03:09:37;;;;;;;1.08;0.98;;;22.40;66.90;;;;;;5011264;28;20037;-45
2021/08/04 03:12:03;;;;;;;1.15;1.10;;;22.40;66.20;;;;;;5030946;28;20472;-41
2021/08/04 03:14:29;;;;;;;1.27;1.27;;;22.30;66.30;;;;;;5028165;28;20079;-34
2021/08/04 03:16:54;;;;;;;1.40;1.30;;;22.30;66.00;;;;;;5027044;28;20730;-42
2021/08/04 03:19:20;;;;;;;1.17;1.17;;;22.30;66.20;;;;;;5021774;28;20474;-42
2021/08/04 03:21:45;;;;;;;1.55;1.45;;;22.30;66.00;;;;;;5028658;28;20076;-42
2021/08/04 03:24:11;;;;;;;1.35;1.35;;;22.30;66.10;;;;;;5031770;28;20037;-42
2021/08/04 03:26:37;;;;;;;1.20;1.20;;;22.40;65.90;;;;;;5031880;28;20057;-42
2021/08/04 03:29:02;;;;;;;1.00;1.00;;;22.30;66.00;;;;;;5031000;28;20037;-42
2021/08/04 03:31:28;;;;;;;1.30;1.30;;;22.30;66.20;;;;;;5031237;28;20516;-42
2021/08/04 03:33:53;;;;;;;1.25;1.25;;;22.30;66.10;;;;;;5017215;28;20029;-42
2021/08/04 03:36:19;;;;;;;1.25;1.20;;;22.30;66.40;;;;;;5030632;28;20509;-42
2021/08/04 03:38:45;;;;;;;1.35;1.30;;;22.30;66.70;;;;;;5026621;28;20685;-42
2021/08/04 03:41:10;;;;;;;1.50;1.40;;;22.30;66.60;;;;;;5030612;28;20402;-42
2021/08/04 03:43:36;;;;;;;2.55;1.35;;;22.30;66.20;;;;;;5026965;28;20121;-42
2021/08/04 03:46:01;;;;;;;1.10;1.10;;;22.30;65.90;;;;;;5018688;28;20463;-42
2021/08/04 03:48:27;;;;;;;1.10;1.10;;;22.30;66.50;;;;;;5014031;28;20095;-43
2021/08/04 03:50:53;;;;;;;1.95;1.00;;;22.30;65.80;;;;;;5023097;28;20033;-42
2021/08/04 03:53:18;;;;;;;1.05;1.05;;;22.30;65.70;;;;;;5028081;28;20029;-42
2021/08/04 03:55:44;;;;;;;0.98;0.98;;;22.30;65.90;;;;;;5006588;28;20041;-43
2021/08/04 03:58:09;;;;;;;1.25;1.25;;;22.30;66.00;;;;;;5029480;28;20026;-42
2021/08/04 04:00:35;;;;;;;1.50;1.40;;;22.30;65.80;;;;;;5029666;28;20043;-42
2021/08/04 04:03:00;;;;;;;1.35;1.17;;;22.30;65.80;;;;;;5029348;28;20026;-42
2021/08/04 04:05:26;;;;;;;1.20;1.20;;;22.30;66.90;;;;;;5029852;28;20045;-43
2021/08/04 04:07:52;;;;;;;1.15;1.15;;;22.30;65.80;;;;;;5030030;28;20037;-42
2021/08/04 04:10:17;;;;;;;1.00;1.00;;;22.30;66.10;;;;;;5029912;28;20068;-42
2021/08/04 04:12:43;;;;;;;1.00;1.00;;;22.20;66.30;;;;;;5029491;28;20064;-42
2021/08/04 04:15:09;;;;;;;1.08;1.08;;;22.30;65.90;;;;;;5028319;28;20061;-37
2021/08/04 04:17:34;;;;;;;0.90;0.90;;;22.30;65.90;;;;;;5022491;28;20208;-46
2021/08/04 04:20:00;;;;;;;0.93;0.93;;;22.20;66.00;;;;;;5021180;28;20458;-45
2021/08/04 04:22:25;;;;;;;1.00;1.00;;;22.20;65.90;;;;;;5026956;28;20036;-44
2021/08/04 04:24:51;;;;;;;1.10;1.10;;;22.20;65.90;;;;;;5029984;28;20571;-35
2021/08/04 04:27:16;;;;;;;1.10;1.10;;;22.30;65.70;;;;;;5025938;28;20033;-35
2021/08/04 04:29:42;;;;;;;1.00;1.00;;;22.30;65.70;;;;;;5028811;28;20029;-37
2021/08/04 04:32:08;;;;;;;1.02;1.02;;;22.30;65.90;;;;;;5032323;28;20076;-37
2021/08/04 04:34:34;;;;;;;0.80;0.80;;;22.40;65.80;;;;;;5031053;28;20037;-43
2021/08/04 04:36:59;;;;;;;0.98;0.98;;;22.30;66.00;;;;;;5021202;28;20033;-40
2021/08/04 04:39:26;;;;;;;1.10;0.90;;;22.30;65.80;;;;;;5005369;28;20551;-35
2021/08/04 04:41:52;;;;;;;0.82;0.82;;;22.30;66.70;;;;;;5028887;28;20061;-45
2021/08/04 04:44:17;;;;;;;0.90;0.90;;;22.30;65.90;;;;;;4675834;28;10000164;-42
2021/08/04 04:46:43;;;;;;;0.85;0.85;;;22.30;65.80;;;;;;5031557;28;20393;-42
2021/08/04 04:49:08;;;;;;;1.00;1.00;;;22.30;65.80;;;;;;5023302;28;20393;-42
2021/08/04 04:51:34;;;;;;;2.80;0.77;;;22.20;65.80;;;;;;5041729;28;20053;-42
2021/08/04 04:54:00;;;;;;;1.00;1.00;;;22.30;65.90;;;;;;5032648;28;20854;-42
2021/08/04 04:56:26;;;;;;;1.00;1.00;;;22.30;65.90;;;;;;5030110;28;20026;-43
2021/08/04 04:58:51;;;;;;;1.25;1.10;;;22.30;65.90;;;;;;5028584;28;20458;-42
2021/08/04 05:01:17;;;;;;;1.85;1.10;;;22.30;65.70;;;;;;5024775;28;20806;-42
2021/08/04 05:03:42;;;;;;;0.73;0.73;;;22.30;65.50;;;;;;5007108;28;20087;-43
2021/08/04 05:06:08;;;;;;;1.00;1.00;;;22.30;65.40;;;;;;5018570;28;20072;-44
2021/08/04 05:08:33;;;;;;;1.20;0.77;;;22.30;65.50;;;;;;5017151;28;20030;-43
2021/08/04 05:10:59;;;;;;;1.73;1.00;;;22.30;66.70;;;;;;5020208;28;20038;-43
2021/08/04 05:13:24;;;;;;;0.95;0.77;;;22.30;66.00;;;;;;5023425;28;20022;-43
2021/08/04 05:15:50;;;;;;;0.82;0.82;;;22.30;65.80;;;;;;5021942;28;20025;-37
2021/08/04 05:18:16;;;;;;;1.10;1.10;;;22.20;65.60;;;;;;5020833;28;20104;-44
2021/08/04 05:20:41;;;;;;;0.85;0.85;;;22.20;65.80;;;;;;5005461;28;20026;-43
2021/08/04 05:23:07;;;;;;;1.10;1.00;;;22.20;65.90;;;;;;5018573;28;20026;-40
2021/08/04 05:25:32;;;;;;;0.80;0.80;;;22.10;66.20;;;;;;5020164;28;20044;-43
2021/08/04 05:27:58;;;;;;;0.82;0.82;;;22.10;66.10;;;;;;5016917;28;20155;-36
2021/08/04 05:30:23;;;;;;;0.93;0.93;;;22.10;66.30;;;;;;5015490;28;20627;-41
2021/08/04 05:32:49;;;;;;;0.80;0.80;;;22.00;66.30;;;;;;5021746;28;20094;-46
2021/08/04 05:35:15;;;;;;;0.82;0.82;;;22.00;66.40;;;;;;5007520;28;20611;-45
2021/08/04 05:37:40;;;;;;;0.73;0.73;;;22.00;66.30;;;;;;5024630;28;20090;-43
2021/08/04 05:40:06;;;;;;;0.88;0.88;;;22.00;66.30;;;;;;5018343;28;20037;-43
2021/08/04 05:42:32;;;;;;;0.90;0.90;;;21.90;66.50;;;;;;5019854;28;20029;-42
2021/08/04 05:44:58;;;;;;;1.00;1.00;;;21.90;66.50;;;;;;5017596;28;20132;-39
2021/08/04 05:47:23;;;;;;;1.17;1.17;;;21.90;66.50;;;;;;5027603;28;20029;-36
2021/08/04 05:49:49;;;;;;;0.85;0.85;;;22.00;66.30;;;;;;5034797;28;20068;-43
2021/08/04 05:52:14;;;;;;;0.90;0.90;;;21.90;66.50;;;;;;5031480;28;20119;-43
2021/08/04 05:54:40;;;;;;;0.88;0.88;;;21.90;66.50;;;;;;5027674;28;20030;-48
2021/08/04 05:57:06;;;;;;;1.33;1.23;;;21.90;66.80;;;;;;5034699;28;20483;-38
2021/08/04 05:59:32;;;;;;;0.98;0.98;;;21.90;66.50;;;;;;5025251;28;20022;-44
2021/08/04 06:01:58;;;;;;;1.00;1.00;;;21.90;66.40;;;;;;5030058;28;20025;-41
2021/08/04 06:04:23;;;;;;;0.90;0.90;;;21.90;66.50;;;;;;5010604;28;20026;-43
2021/08/04 06:06:49;;;;;;;1.17;1.08;;;21.90;66.40;;;;;;5008340;28;20045;-40
2021/08/04 06:09:14;;;;;;;1.10;1.10;;;21.80;66.50;;;;;;5026230;28;20129;-40
2021/08/04 06:11:40;;;;;;;1.17;1.08;;;21.90;66.70;;;;;;5031147;28;20037;-44
2021/08/04 06:14:06;;;;;;;0.80;0.80;;;21.90;66.50;;;;;;5030034;28;20037;-37
2021/08/04 06:16:31;;;;;;;0.90;0.90;;;21.90;66.70;;;;;;5029127;28;20037;-42
2021/08/04 06:18:57;;;;;;;0.80;0.80;;;21.80;66.50;;;;;;5027373;28;20028;-42
2021/08/04 06:21:26;;;;;;;1.00;1.00;;;21.90;66.80;;;;;;5025299;28;20079;-41
2021/08/04 06:23:52;;;;;;;0.77;0.77;;;21.90;66.40;;;;;;5029525;28;20031;-39
2021/08/04 06:26:17;;;;;;;0.80;0.80;;;21.90;66.70;;;;;;5022604;28;20042;-39
2021/08/04 06:28:43;;;;;;;1.00;1.00;;;22.00;66.40;;;;;;5029293;28;20579;-36
2021/08/04 06:31:09;;;;;;;0.60;0.60;;;22.00;66.30;;;;;;5029069;28;20123;-37
2021/08/04 06:33:35;;;;;;;0.95;0.95;;;22.00;66.30;;;;;;5023349;28;20029;-39
2021/08/04 06:36:00;;;;;;;0.80;0.80;;;22.00;66.30;;;;;;5045624;28;20044;-39
2021/08/04 06:38:26;;;;;;;0.77;0.77;;;22.00;66.30;;;;;;5029110;28;20032;-38
2021/08/04 06:40:51;;;;;;;0.88;0.88;;;22.00;66.40;;;;;;5027945;28;20044;-38
2021/08/04 06:43:17;;;;;;;0.77;0.77;;;22.10;66.40;;;;;;5023670;28;20811;-44
2021/08/04 06:45:43;;;;;;;0.80;0.80;;;22.00;66.40;;;;;;5022373;28;20104;-45
2021/08/04 06:48:10;;;;;;;0.90;0.90;;;22.00;66.30;;;;;;5009972;28;20117;-44
2021/08/04 06:50:36;;;;;;;0.85;0.85;;;22.00;66.30;;;;;;5024009;28;20041;-47
2021/08/04 06:53:01;;;;;;;1.58;0.90;;;22.00;66.00;;;;;;5023162;28;20034;-41
2021/08/04 06:55:27;;;;;;;0.80;0.80;;;22.00;66.80;;;;;;5019831;28;20028;-36
2021/08/04 06:57:52;;;;;;;0.90;0.90;;;22.10;66.90;;;;;;5014212;28;20085;-49
2021/08/04 07:00:18;;;;;;;0.77;0.77;;;22.00;66.10;;;;;;5019812;28;20409;-43
2021/08/04 07:02:44;;;;;;;0.80;0.80;;;22.00;66.20;;;;;;5006243;28;20053;-43
2021/08/04 07:05:10;;;;;;;0.80;0.80;;;22.00;66.10;;;;;;5025334;28;20045;-40
2021/08/04 07:07:35;;;;;;;0.90;0.90;;;22.10;65.90;;;;;;5021339;28;20029;-51
2021/08/04 07:10:01;;;;;;;0.80;0.80;;;22.10;65.70;;;;;;5020197;28;20048;-37
2021/08/04 07:12:26;;;;;;;1.00;1.00;;;22.10;65.80;;;;;;5026106;28;20041;-39
2021/08/04 07:14:52;;;;;;;0.73;0.73;;;22.00;65.90;;;;;;5023767;28;20050;-33
2021/08/04 07:17:18;;;;;;;0.60;0.60;;;22.10;66.00;;;;;;5023192;28;20029;-41
2021/08/04 07:19:43;;;;;;;0.88;0.88;;;22.10;66.30;;;;;;5025618;28;20037;-38
2021/08/04 07:22:09;;;;;;;0.80;0.80;;;22.00;66.30;;;;;;5009363;28;20029;-34
2021/08/04 07:24:35;;;;;;;0.68;0.68;;;22.00;66.40;;;;;;5040011;28;20041;-35
2021/08/04 07:27:00;;;;;;;0.65;0.65;;;22.10;65.90;;;;;;5048039;28;20812;-42
2021/08/04 07:29:26;;;;;;;0.93;0.80;;;22.10;66.10;;;;;;5030823;28;20064;-42
2021/08/04 07:31:51;;;;;;;0.80;0.80;;;22.10;65.90;;;;;;5019340;28;20045;-43
2021/08/04 07:34:21;;;;;;;0.70;0.70;;;22.10;66.00;;;;;;5015198;28;20029;-42
2021/08/04 07:36:48;;;;;;;0.70;0.70;;;22.10;65.90;;;;;;5017887;28;20044;-43
2021/08/04 07:39:14;;;;;;;0.70;0.70;;;22.10;66.80;;;;;;5019422;28;20029;-42
2021/08/04 07:41:39;;;;;;;0.70;0.70;;;22.10;66.10;;;;;;5026126;28;20076;-43
2021/08/04 07:44:05;;;;;;;1.00;0.90;;;22.00;66.10;;;;;;5027669;28;20447;-43
2021/08/04 07:46:31;;;;;;;0.75;0.73;;;22.10;66.20;;;;;;5030983;28;20095;-43
2021/08/04 07:48:56;;;;;;;0.80;0.80;;;22.10;66.80;;;;;;5031933;28;20032;-43
2021/08/04 07:51:22;;;;;;;0.80;0.80;;;22.00;66.30;;;;;;5028857;28;20063;-43
2021/08/04 07:53:47;;;;;;;0.75;0.75;;;22.10;66.10;;;;;;5026996;28;20041;-43
2021/08/04 07:56:13;;;;;;;0.70;0.70;;;22.10;66.00;;;;;;5028885;28;20467;-43
2021/08/04 07:58:39;;;;;;;0.70;0.70;;;22.10;66.10;;;;;;5031545;28;20030;-43
2021/08/04 08:01:04;;;;;;;0.70;0.70;;;22.00;66.20;;;;;;5031152;28;20032;-43
2021/08/04 08:03:30;;;;;;;0.57;0.57;;;22.10;66.00;;;;;;5028838;28;20048;-43
2021/08/04 08:05:55;;;;;;;0.60;0.60;;;22.10;66.00;;;;;;5028896;28;20088;-43
2021/08/04 08:08:21;;;;;;;0.70;0.70;;;22.20;66.00;;;;;;5009528;28;20115;-43
2021/08/04 08:10:49;;;;;;;0.60;0.60;;;22.10;66.00;;;;;;5029509;28;20069;-43
2021/08/04 08:13:15;;;;;;;0.80;0.80;;;22.10;66.00;;;;;;5030304;28;20033;-42
2021/08/04 08:15:41;;;;;;;0.68;0.68;;;22.10;66.30;;;;;;5031189;28;20047;-38
2021/08/04 08:18:07;;;;;;;0.85;0.85;;;22.10;67.10;;;;;;5026808;28;20032;-43
2021/08/04 08:20:33;;;;;;;0.70;0.70;;;22.10;66.30;;;;;;5023338;28;20033;-43
2021/08/04 08:22:59;;;;;;;0.63;0.63;;;22.00;66.30;;;;;;5028942;28;20029;-43
2021/08/04 08:25:24;;;;;;;0.70;0.70;;;22.10;66.40;;;;;;5030661;28;20037;-43
2021/08/04 08:27:50;;;;;;;0.80;0.80;;;22.10;66.30;;;;;;5025101;28;20032;-44
2021/08/04 08:30:15;;;;;;;0.65;0.57;;;22.10;66.30;;;;;;5016565;28;20420;-44
2021/08/04 08:32:41;;;;;;;0.85;0.80;;;22.00;66.40;;;;;;5031679;28;20021;-42
2021/08/04 08:35:07;;;;;;;0.63;0.63;;;22.00;66.40;;;;;;5003989;28;20487;-42
2021/08/04 08:37:33;;;;;;;0.73;0.73;;;22.00;66.70;;;;;;5024872;28;20483;-41
2021/08/04 08:39:59;;;;;;;0.77;0.77;;;22.00;66.80;;;;;;5015570;28;20103;-41
2021/08/04 08:42:24;;;;;;;0.60;0.60;;;22.10;66.70;;;;;;5028042;28;20013;-41
2021/08/04 08:44:50;;;;;;;1.15;0.80;;;22.10;67.50;;;;;;5029157;28;20072;-41
2021/08/04 08:47:15;;;;;;;0.60;0.60;;;22.10;67.00;;;;;;5013795;28;20079;-41
2021/08/04 08:49:42;;;;;;;0.57;0.57;;;22.10;66.90;;;;;;5029078;28;20037;-42
2021/08/04 08:52:08;;;;;;;2.00;0.70;;;22.00;67.10;;;;;;5024741;28;20033;-42
2021/08/04 08:54:34;;;;;;;0.70;0.70;;;22.00;67.00;;;;;;5015330;28;20033;-41
2021/08/04 08:56:59;;;;;;;0.77;0.77;;;22.10;66.90;;;;;;5024427;28;20075;-42
2021/08/04 08:59:25;;;;;;;0.98;0.95;;;22.20;67.70;;;;;;5018850;28;20125;-42
2021/08/04 09:01:51;;;;;;;0.52;0.52;;;22.20;66.70;;;;;;5026878;28;20028;-42
2021/08/04 09:04:16;;;;;;;0.75;0.75;;;22.20;66.90;;;;;;5013896;28;20064;-42
2021/08/04 09:06:46;;;;;;;0.80;0.80;;;22.20;66.90;;;;;;5008099;28;20053;-42
2021/08/04 09:09:19;;;;;;;1.35;1.20;;;22.10;67.10;;;;;;5028614;28;20416;-41
2021/08/04 09:12:14;;;;;;;0.55;0.55;;;22.20;67.00;;;;;;5032158;28;20140;-41
2021/08/04 09:14:40;;;;;;;0.60;0.60;;;22.30;66.70;;;;;;5022164;28;20045;-39
2021/08/04 09:17:09;;;;;;;0.60;0.60;;;22.30;67.50;;;;;;5013468;28;20041;-44
2021/08/04 09:19:49;;;;;;;0.68;0.68;;;22.20;67.10;;;;;;5013019;28;20069;-42
2021/08/04 09:22:22;;;;;;;0.98;0.75;;;22.20;67.10;;;;;;5026793;28;20056;-40
2021/08/04 09:24:57;;;;;;;0.50;0.50;;;22.20;67.30;;;;;;5019488;28;20031;-40
2021/08/04 09:27:46;;;;;;;0.57;0.57;;;22.20;67.30;;;;;;5028163;28;20041;-38
2021/08/04 09:30:15;;;;;;;0.68;0.68;;;22.20;67.30;;;;;;5027563;28;20672;-40
2021/08/04 09:32:41;;;;;;;0.50;0.50;;;22.20;67.30;;;;;;5022269;28;20045;-40
2021/08/04 09:35:24;;;;;;;0.65;0.65;;;22.20;67.30;;;;;;5026617;28;20025;-44
2021/08/04 09:37:50;;;;;;;1.23;0.70;;;22.20;67.30;;;;;;5025498;28;20075;-37
2021/08/04 09:40:19;;;;;;;0.70;0.70;;;22.20;67.30;;;;;;5023474;28;20116;-39
2021/08/04 09:42:45;;;;;;;0.60;0.60;;;22.20;67.30;;;;;;5023823;28;20032;-37
2021/08/04 09:45:12;;;;;;;0.70;0.70;;;22.20;67.30;;;;;;5016357;28;20034;-44
2021/08/04 09:47:37;;;;;;;0.80;0.80;;;22.20;67.20;;;;;;5026244;28;20751;-37
2021/08/04 09:50:07;;;;;;;0.60;0.60;;;22.30;67.30;;;;;;5031677;28;20108;-41
2021/08/04 09:52:33;;;;;;;0.60;0.60;;;22.30;67.10;;;;;;5036636;28;20063;-40
2021/08/04 09:55:12;;;;;;;0.50;0.50;;;22.30;67.30;;;;;;4993919;28;20021;-38
2021/08/04 09:57:39;;;;;;;0.68;0.60;;;22.40;67.00;;;;;;5018328;28;20496;-37
2021/08/04 10:00:07;;;;;;;0.65;0.60;;;22.30;67.90;;;;;;5031480;28;20102;-39
2021/08/04 10:02:33;;;;;;;0.60;0.60;;;22.30;67.10;;;;;;5023406;28;20122;-43
2021/08/04 10:05:17;;;;;;;0.82;0.82;;;22.30;67.30;;;;;;5025338;28;20543;-42
2021/08/04 10:08:05;;;;;;;0.77;0.77;;;22.20;67.60;;;;;;5024359;28;20025;-39
2021/08/04 10:10:33;;;;;;;0.70;0.60;;;22.20;67.70;;;;;;5016147;28;20040;-40
2021/08/04 10:13:00;;;;;;;0.65;0.65;;;22.20;67.70;;;;;;5027882;28;20033;-45
2021/08/04 10:15:26;;;;;;;0.60;0.60;;;22.20;68.10;;;;;;5023503;28;20056;-41
2021/08/04 10:17:51;;;;;;;0.90;0.90;;;22.20;67.90;;;;;;5032852;28;20109;-41
2021/08/04 10:20:17;;;;;;;1.05;0.60;;;22.20;68.10;;;;;;5005069;28;20116;-42
2021/08/04 10:22:43;;;;;;;0.73;0.73;;;22.20;68.10;;;;;;5013117;28;20083;-43
2021/08/04 10:25:09;;;;;;;0.90;0.90;;;22.20;68.20;;;;;;5011221;28;20091;-39
2021/08/04 10:27:34;;;;;;;0.95;0.88;;;22.30;68.70;;;;;;5003451;28;20022;-42
2021/08/04 10:30:00;;;;;;;0.90;0.90;;;22.40;68.50;;;;;;5026919;28;20021;-42
2021/08/04 10:32:27;;;;;;;0.70;0.70;;;22.40;68.40;;;;;;5008928;28;20579;-43
2021/08/04 10:34:56;;;;;;;0.70;0.70;;;22.40;68.40;;;;;;5024954;28;20034;-42
2021/08/04 10:37:24;;;;;;;1.05;1.05;;;22.40;68.50;;;;;;5015149;28;20055;-42
2021/08/04 10:39:50;;;;;;;0.88;0.88;;;22.40;68.80;;;;;;5008997;28;20544;-43
2021/08/04 10:42:15;;;;;;;0.63;0.63;;;22.50;68.80;;;;;;5011166;28;20116;-43
2021/08/04 10:44:41;;;;;;;0.75;0.70;;;22.40;68.90;;;;;;5020198;28;20036;-42
2021/08/04 10:47:23;;;;;;;0.73;0.73;;;22.40;69.50;;;;;;5031906;28;20029;-42
2021/08/04 10:50:08;;;;;;;0.88;0.88;;;22.40;69.20;;;;;;5014558;28;20055;-42
2021/08/04 10:52:34;;;;;;;0.60;0.60;;;22.40;68.80;;;;;;5025968;28;20040;-42
2021/08/04 10:55:06;;;;;;;0.80;0.80;;;22.40;69.00;;;;;;5012387;28;20025;-42
2021/08/04 10:57:35;;;;;;;0.73;0.73;;;22.40;68.90;;;;;;5020904;28;20124;-44
2021/08/04 11:00:20;;;;;;;0.55;0.55;;;22.50;68.70;;;;;;5023468;28;20033;-43
2021/08/04 11:02:45;;;;;;;0.63;0.63;;;22.40;68.80;;;;;;5022964;28;20040;-44
2021/08/04 11:05:13;;;;;;;0.77;0.77;;;22.40;69.00;;;;;;5030972;28;20050;-44
2021/08/04 11:07:38;;;;;;;0.60;0.60;;;22.40;69.00;;;;;;5013569;28;20407;-44
2021/08/04 11:10:05;;;;;;;0.63;0.63;;;22.50;68.90;;;;;;5001754;28;20018;-44
2021/08/04 11:12:36;;;;;;;0.93;0.93;;;22.50;68.80;;;;;;5016137;28;20045;-42
2021/08/04 11:15:03;;;;;;;0.80;0.80;;;22.40;69.00;;;;;;5022527;28;20068;-43
2021/08/04 11:17:31;;;;;;;0.80;0.80;;;22.40;68.80;;;;;;5020291;28;20119;-42
2021/08/04 11:19:56;;;;;;;0.57;0.57;;;22.40;68.70;;;;;;5028867;28;20511;-47
2021/08/04 11:22:23;;;;;;;0.63;0.63;;;22.50;68.60;;;;;;5025772;28;20124;-40
2021/08/04 11:24:53;;;;;;;0.80;0.80;;;22.50;68.50;;;;;;5023049;28;20040;-41
2021/08/04 11:27:19;;;;;;;0.80;0.80;;;22.50;68.60;;;;;;5020632;28;20026;-37
2021/08/04 11:29:46;;;;;;;0.80;0.80;;;22.40;68.50;;;;;;5017009;28;20029;-38
2021/08/04 11:32:22;;;;;;;0.70;0.70;;;22.50;68.60;;;;;;5008268;28;20053;-40
2021/08/04 11:34:47;;;;;;;0.63;0.63;;;22.50;68.40;;;;;;5021268;28;20087;-30
2021/08/04 11:37:13;;;;;;;0.60;0.60;;;22.50;68.50;;;;;;5028263;28;20037;-36
2021/08/04 11:40:02;;;;;;;1.13;0.98;;;22.50;68.60;;;;;;5022241;28;20170;-40
2021/08/04 11:42:28;;;;;;;0.60;0.60;;;22.50;68.60;;;;;;5021588;28;20052;-40
2021/08/04 11:44:54;;;;;;;0.70;0.70;;;22.50;68.40;;;;;;5012687;28;20032;-47
2021/08/04 11:47:20;;;;;;;0.50;0.50;;;22.50;68.30;;;;;;5006475;28;20049;-46
2021/08/04 11:49:51;;;;;;;0.85;0.73;;;22.40;68.50;;;;;;5004445;28;20521;-41
2021/08/04 11:52:19;;;;;;;0.70;0.70;;;22.50;68.50;;;;;;5008856;28;20609;-42
2021/08/04 11:55:00;;;;;;;0.70;0.70;;;22.50;68.50;;;;;;5020882;28;20028;-39
2021/08/04 11:57:27;;;;;;;0.82;0.80;;;22.40;68.50;;;;;;5018654;28;20134;-44
2021/08/04 11:59:58;;;;;;;0.65;0.65;;;22.50;68.50;;;;;;5021184;28;20017;-39
2021/08/04 12:02:24;;;;;;;0.60;0.60;;;22.50;68.60;;;;;;5021238;28;20466;-37
2021/08/04 12:04:54;;;;;;;0.57;0.57;;;22.50;68.60;;;;;;5011605;28;20438;-35
2021/08/04 12:07:27;;;;;;;0.82;0.82;;;22.50;68.60;;;;;;5020517;28;20060;-42
2021/08/04 12:10:12;;;;;;;0.63;0.63;;;22.50;69.40;;;;;;5011536;28;20121;-44
2021/08/04 12:12:39;;;;;;;0.60;0.60;;;22.50;68.40;;;;;;5012977;28;20037;-40
2021/08/04 12:15:14;;;;;;;0.40;0.40;;;22.40;68.50;;;;;;5011886;28;20026;-43
2021/08/04 12:17:40;;;;;;;0.60;0.60;;;22.40;68.50;;;;;;5015887;28;20570;-48
2021/08/04 12:20:25;;;;;;;0.50;0.50;;;22.40;68.50;;;;;;4999621;28;20029;-35
2021/08/04 12:23:00;;;;;;;0.47;0.47;;;22.30;68.90;;;;;;5015856;28;20107;-45
2021/08/04 12:25:26;;;;;;;0.73;0.50;;;22.40;68.70;;;;;;5007334;28;20380;-45
2021/08/04 12:27:53;;;;;;;0.60;0.60;;;22.40;68.90;;;;;;5017950;28;20033;-43
2021/08/04 12:30:25;;;;;;;0.52;0.52;;;22.30;69.00;;;;;;5015657;28;20550;-36
2021/08/04 12:33:19;;;;;;;0.60;0.60;;;22.40;68.90;;;;;;4993509;28;20681;-44
2021/08/04 12:35:50;;;;;;;0.60;0.60;;;22.40;69.10;;;;;;5018752;28;20503;-41
2021/08/04 12:38:25;;;;;;;0.57;0.57;;;22.40;69.00;;;;;;5017761;28;20547;-47
2021/08/04 12:40:52;;;;;;;0.55;0.55;;;22.40;68.90;;;;;;5014226;28;20065;-42
2021/08/04 12:43:18;;;;;;;0.60;0.60;;;22.30;68.70;;;;;;5005147;28;20369;-43
2021/08/04 12:45:54;;;;;;;0.60;0.60;;;22.40;68.80;;;;;;5009006;28;20036;-43
2021/08/04 12:48:22;;;;;;;2.05;0.75;;;22.40;69.50;;;;;;5018277;28;20032;-43